createdAt,value
2019-04-29T00:01:50.595Z,24.87
2019-04-29T00:04:23.275Z,21.23
2019-04-29T00:06:55.992Z,33.50
2019-04-29T00:09:31.010Z,23.20
2019-04-29T00:12:03.200Z,35.00
2019-04-29T00:14:37.769Z,28.57
2019-04-29T00:17:13.225Z,24.33
2019-04-29T00:19:50.150Z,22.03
2019-04-29T00:22:22.750Z,15.50
2019-04-29T00:24:55.235Z,26.80
2019-04-29T00:27:28.275Z,30.37
2019-04-29T00:30:00.950Z,16.13
2019-04-29T00:32:33.880Z,26.10
2019-04-29T00:35:08.172Z,21.13
2019-04-29T00:37:55.525Z,20.07
2019-04-29T00:40:30.565Z,14.20
2019-04-29T00:43:20.895Z,15.43
2019-04-29T00:45:53.640Z,11.37
2019-04-29T00:48:26.310Z,10.87
2019-04-29T00:50:59.092Z,13.07
2019-04-29T00:53:31.704Z,11.33
2019-04-29T00:56:05.175Z,10.67
2019-04-29T00:58:37.585Z,12.83
2019-04-29T01:01:14.006Z,11.53
2019-04-29T01:03:46.684Z,10.97
2019-04-29T01:06:19.475Z,13.00
2019-04-29T01:08:51.940Z,9.40
2019-04-29T01:11:24.725Z,9.93
2019-04-29T01:13:57.376Z,11.43
2019-04-29T01:16:30.096Z,12.50
2019-04-29T01:19:03.969Z,9.87
2019-04-29T01:21:36.801Z,19.60
2019-04-29T01:24:09.537Z,12.53
2019-04-29T01:26:49.910Z,11.77
2019-04-29T01:29:24.214Z,12.47
2019-04-29T01:31:57.422Z,11.47
2019-04-29T01:34:31.640Z,9.87
2019-04-29T01:37:04.255Z,8.87
2019-04-29T01:39:43.960Z,8.40
2019-04-29T01:42:18.286Z,8.80
2019-04-29T01:44:50.835Z,10.80
2019-04-29T01:47:23.424Z,8.83
2019-04-29T01:49:56.060Z,9.90
2019-04-29T01:52:28.599Z,10.00
2019-04-29T01:55:01.241Z,10.67
2019-04-29T01:57:33.714Z,8.23
2019-04-29T02:00:12.244Z,9.03
2019-04-29T02:02:43.975Z,10.20
2019-04-29T02:05:16.490Z,8.30
2019-04-29T02:07:48.955Z,10.67
2019-04-29T02:10:23.272Z,8.17
2019-04-29T02:12:55.922Z,8.30
2019-04-29T02:15:28.600Z,10.30
2019-04-29T02:18:01.106Z,11.37
2019-04-29T02:20:34.946Z,11.57
2019-04-29T02:23:07.300Z,8.53
2019-04-29T02:25:44.682Z,10.23
2019-04-29T02:28:17.296Z,13.80
2019-04-29T02:30:53.245Z,10.97
2019-04-29T02:33:25.888Z,10.30
2019-04-29T02:35:58.826Z,12.27
2019-04-29T02:38:34.374Z,11.70
2019-04-29T02:41:27.181Z,9.70
2019-04-29T02:44:01.396Z,10.37
2019-04-29T02:46:34.132Z,12.40
2019-04-29T02:49:06.956Z,12.13
2019-04-29T02:51:44.300Z,12.83
2019-04-29T02:54:16.970Z,12.20
2019-04-29T02:57:02.933Z,11.10
2019-04-29T02:59:55.545Z,12.43
2019-04-29T03:02:30.082Z,14.23
2019-04-29T03:05:04.797Z,13.53
2019-04-29T03:07:37.472Z,13.83
2019-04-29T03:10:10.376Z,14.20
2019-04-29T03:12:43.006Z,15.53
2019-04-29T03:15:19.970Z,14.10
2019-04-29T03:17:53.741Z,13.10
2019-04-29T03:20:28.055Z,15.83
2019-04-29T03:23:14.246Z,17.00
2019-04-29T03:25:47.031Z,17.47
2019-04-29T03:28:19.751Z,14.37
2019-04-29T03:30:52.370Z,15.93
2019-04-29T03:33:25.125Z,16.97
2019-04-29T03:35:58.060Z,20.77
2019-04-29T03:38:31.625Z,17.03
2019-04-29T03:41:04.319Z,17.90
2019-04-29T03:43:37.001Z,14.93
2019-04-29T03:46:09.607Z,17.13
2019-04-29T03:48:42.464Z,21.33
2019-04-29T03:51:14.939Z,20.07
2019-04-29T03:53:47.500Z,20.90
2019-04-29T03:56:20.091Z,20.37
2019-04-29T03:58:52.847Z,19.90
2019-04-29T04:01:27.012Z,19.57
2019-04-29T04:04:03.977Z,24.37
2019-04-29T04:06:38.130Z,17.77
2019-04-29T04:09:19.575Z,24.57
2019-04-29T04:11:52.170Z,26.97
2019-04-29T04:14:24.911Z,25.60
2019-04-29T04:16:59.255Z,21.50
2019-04-29T04:19:33.635Z,23.40
2019-04-29T04:22:06.185Z,26.60
2019-04-29T04:24:39.031Z,26.63
2019-04-29T04:27:11.616Z,23.60
2019-04-29T04:29:44.310Z,25.53
2019-04-29T04:32:17.156Z,20.73
2019-04-29T04:34:50.173Z,26.77
2019-04-29T04:37:23.028Z,28.47
2019-04-29T04:39:56.836Z,28.50
2019-04-29T04:42:30.096Z,26.87
2019-04-29T04:45:02.998Z,26.37
2019-04-29T04:47:35.689Z,23.80
2019-04-29T04:50:09.035Z,28.97
2019-04-29T04:52:41.590Z,28.00
2019-04-29T04:55:14.720Z,32.17
2019-04-29T04:57:47.585Z,30.50
2019-04-29T05:00:22.478Z,32.83
2019-04-29T05:02:55.975Z,34.67
2019-04-29T05:05:28.524Z,36.80
2019-04-29T05:08:01.298Z,34.07
2019-04-29T05:10:34.010Z,35.00
2019-04-29T05:13:06.470Z,40.63
2019-04-29T05:15:39.441Z,32.40
2019-04-29T05:18:12.157Z,29.87
2019-04-29T05:20:44.924Z,35.40
2019-04-29T05:23:17.475Z,37.57
2019-04-29T05:25:50.155Z,33.63
2019-04-29T05:28:22.775Z,36.90
2019-04-29T05:30:55.515Z,36.83
2019-04-29T05:33:27.918Z,34.47
2019-04-29T05:36:07.700Z,34.10
2019-04-29T05:38:41.790Z,33.17
2019-04-29T05:41:14.680Z,30.57
2019-04-29T05:43:49.179Z,34.97
2019-04-29T05:46:27.381Z,37.33
2019-04-29T05:49:02.496Z,30.93
2019-04-29T05:51:35.909Z,33.67
2019-04-29T05:54:10.019Z,38.93
2019-04-29T05:56:42.842Z,33.87
2019-04-29T05:59:15.419Z,33.43
2019-04-29T06:01:48.980Z,30.50
2019-04-29T06:04:21.585Z,30.47
2019-04-29T06:06:54.345Z,35.20
2019-04-29T06:09:26.925Z,41.87
2019-04-29T06:11:59.633Z,38.87
2019-04-29T06:14:32.498Z,32.67
2019-04-29T06:17:07.692Z,38.30
2019-04-29T06:19:41.041Z,34.83
2019-04-29T06:22:13.920Z,39.00
2019-04-29T06:24:46.779Z,46.30
2019-04-29T06:27:19.552Z,33.83
2019-04-29T06:29:52.333Z,37.40
2019-04-29T06:32:26.387Z,39.13
2019-04-29T06:34:59.669Z,40.33
2019-04-29T06:37:32.320Z,40.10
2019-04-29T06:40:06.770Z,43.10
2019-04-29T06:42:39.612Z,41.57
2019-04-29T06:45:12.369Z,42.17
2019-04-29T06:47:45.195Z,46.70
2019-04-29T06:50:18.694Z,34.87
2019-04-29T06:52:51.584Z,39.20
2019-04-29T06:55:24.336Z,44.00
2019-04-29T06:57:57.025Z,39.50
2019-04-29T07:00:29.640Z,37.43
2019-04-29T07:03:02.504Z,45.20
2019-04-29T07:05:35.105Z,40.37
2019-04-29T07:08:08.014Z,42.40
2019-04-29T07:10:40.336Z,39.70
2019-04-29T07:13:12.875Z,42.00
2019-04-29T07:15:47.758Z,40.80
2019-04-29T07:18:19.394Z,41.37
2019-04-29T07:20:51.875Z,39.47
2019-04-29T07:23:24.455Z,41.07
2019-04-29T07:25:57.174Z,35.87
2019-04-29T07:28:29.924Z,35.43
2019-04-29T07:31:03.151Z,40.77
2019-04-29T07:33:35.835Z,45.87
2019-04-29T07:36:11.275Z,42.60
2019-04-29T07:38:46.528Z,35.70
2019-04-29T07:41:19.030Z,39.53
2019-04-29T07:43:50.275Z,41.23
2019-04-29T07:46:24.176Z,36.83
2019-04-29T07:49:01.791Z,38.70
2019-04-29T07:51:30.635Z,38.00
2019-04-29T07:54:03.154Z,47.00
2019-04-29T07:56:37.866Z,37.83
2019-04-29T07:59:11.325Z,38.17
2019-04-29T08:01:44.074Z,38.07
2019-04-29T08:04:16.554Z,37.97
2019-04-29T08:06:50.097Z,34.43
2019-04-29T08:09:22.516Z,37.30
2019-04-29T08:11:55.215Z,39.27
2019-04-29T08:14:28.377Z,43.30
2019-04-29T08:17:00.955Z,42.20
2019-04-29T08:19:33.374Z,35.63
2019-04-29T08:22:05.835Z,46.73
2019-04-29T08:24:38.375Z,39.80
2019-04-29T08:27:11.016Z,45.17
2019-04-29T08:29:45.055Z,47.17
2019-04-29T08:32:17.415Z,42.43
2019-04-29T08:34:53.598Z,40.00
2019-04-29T08:37:24.993Z,35.50
2019-04-29T08:40:14.750Z,39.43
2019-04-29T08:42:46.675Z,38.63
2019-04-29T08:45:34.804Z,38.70
2019-04-29T08:48:08.005Z,37.03
2019-04-29T08:50:40.385Z,38.47
2019-04-29T08:53:12.986Z,41.03
2019-04-29T08:55:45.385Z,39.23
2019-04-29T08:58:17.868Z,37.63
2019-04-29T09:00:51.453Z,42.93
2019-04-29T09:03:24.505Z,37.60
2019-04-29T09:06:05.005Z,38.90
2019-04-29T09:08:32.839Z,39.73
2019-04-29T09:11:08.121Z,46.20
2019-04-29T09:13:39.607Z,38.83
2019-04-29T09:16:12.085Z,37.67
2019-04-29T09:18:44.590Z,38.37
2019-04-29T09:21:17.024Z,38.17
2019-04-29T09:23:50.645Z,44.93
2019-04-29T09:26:32.485Z,40.03
2019-04-29T09:29:23.145Z,42.30
2019-04-29T09:31:55.705Z,34.17
2019-04-29T09:34:28.286Z,37.63
2019-04-29T09:37:00.872Z,37.73
2019-04-29T09:39:42.889Z,40.63
2019-04-29T09:42:22.685Z,36.27
2019-04-29T09:44:59.845Z,37.10
2019-04-29T09:47:33.925Z,40.00
2019-04-29T09:50:10.229Z,34.97
2019-04-29T09:52:42.705Z,38.17
2019-04-29T09:55:16.999Z,33.90
2019-04-29T09:57:49.625Z,34.03
2019-04-29T10:00:26.172Z,33.43
2019-04-29T10:03:05.966Z,32.77
2019-04-29T10:05:48.385Z,28.77
2019-04-29T10:08:20.905Z,35.73
2019-04-29T10:10:53.367Z,32.97
2019-04-29T10:13:25.826Z,31.27
2019-04-29T10:16:11.786Z,31.60
2019-04-29T10:18:50.166Z,25.27
2019-04-29T10:21:23.449Z,25.17
2019-04-29T10:23:56.625Z,30.32
2019-04-29T10:26:28.966Z,29.85
2019-04-29T10:29:05.968Z,26.55
2019-04-29T10:31:38.445Z,24.70
2019-04-29T10:34:12.765Z,23.10
2019-04-29T10:36:45.265Z,29.52
2019-04-29T10:39:35.465Z,28.62
2019-04-29T10:42:09.525Z,27.37
2019-04-29T10:44:59.610Z,33.80
2019-04-29T10:47:36.425Z,24.90
2019-04-29T10:50:15.428Z,27.07
2019-04-29T10:52:49.525Z,24.18
2019-04-29T10:55:25.591Z,23.95
2019-04-29T10:57:56.925Z,29.45
2019-04-29T11:00:57.316Z,24.40
2019-04-29T11:03:27.284Z,26.30
2019-04-29T11:06:01.958Z,24.05
2019-04-29T11:08:46.345Z,24.37
2019-04-29T11:11:23.227Z,24.77
2019-04-29T11:13:57.674Z,24.50
2019-04-29T11:16:45.307Z,28.77
2019-04-29T11:19:05.456Z,26.55
2019-04-29T11:21:38.968Z,24.23
2019-04-29T11:24:15.945Z,29.35
2019-04-29T11:27:11.177Z,22.65
2019-04-29T11:29:35.806Z,24.72
2019-04-29T11:32:08.985Z,27.13
2019-04-29T11:34:43.144Z,29.50
2019-04-29T11:37:17.939Z,21.40
2019-04-29T11:39:51.395Z,23.80
2019-04-29T11:42:24.385Z,19.82
2019-04-29T11:45:01.443Z,24.00
2019-04-29T11:47:33.245Z,26.00
2019-04-29T11:50:11.845Z,22.00
2019-04-29T11:52:43.904Z,24.87
2019-04-29T11:55:18.493Z,21.90
2019-04-29T11:57:57.964Z,19.73
2019-04-29T12:00:33.178Z,19.85
2019-04-29T12:03:14.354Z,28.00
2019-04-29T12:05:49.444Z,25.92
2019-04-29T12:08:21.965Z,18.75
2019-04-29T12:11:06.686Z,21.48
2019-04-29T12:13:30.305Z,62.73
2019-04-29T12:16:04.868Z,21.68
2019-04-29T12:18:53.905Z,26.68
2019-04-29T12:21:31.169Z,28.73
2019-04-29T12:24:04.305Z,26.35
2019-04-29T12:26:43.128Z,25.00
2019-04-29T12:29:13.624Z,27.27
2019-04-29T12:32:03.065Z,21.12
2019-04-29T12:34:53.275Z,26.10
2019-04-29T12:37:34.345Z,22.95
2019-04-29T12:40:24.987Z,16.12
2019-04-29T12:42:57.226Z,15.50
2019-04-29T12:45:32.054Z,28.32
2019-04-29T12:48:06.653Z,17.70
2019-04-29T12:50:39.086Z,16.62
2019-04-29T12:53:11.845Z,19.35
2019-04-29T12:55:49.460Z,24.23
2019-04-29T12:58:24.174Z,19.00
2019-04-29T13:01:01.160Z,17.05
2019-04-29T13:03:39.527Z,17.50
2019-04-29T13:06:38.798Z,15.70
2019-04-29T13:09:17.299Z,22.05
2019-04-29T13:11:48.328Z,17.60
2019-04-29T13:14:14.625Z,17.70
2019-04-29T13:16:55.805Z,15.75
2019-04-29T13:19:39.455Z,14.95
2019-04-29T13:22:15.516Z,18.32
2019-04-29T13:24:46.127Z,17.12
2019-04-29T13:27:20.756Z,15.88
2019-04-29T13:29:52.585Z,17.82
2019-04-29T13:32:29.861Z,21.30
2019-04-29T13:35:05.379Z,16.07
2019-04-29T13:37:35.805Z,17.60
2019-04-29T13:40:11.727Z,20.97
2019-04-29T13:42:48.491Z,14.38
2019-04-29T13:45:26.953Z,18.45
2019-04-29T13:48:07.111Z,12.85
2019-04-29T13:50:42.809Z,24.70
2019-04-29T13:53:16.572Z,14.68
2019-04-29T13:56:10.048Z,16.55
2019-04-29T13:58:27.168Z,16.23
2019-04-29T14:01:04.746Z,22.67
2019-04-29T14:03:41.978Z,16.77
2019-04-29T14:06:14.394Z,23.77
2019-04-29T14:08:48.005Z,16.45
2019-04-29T14:11:22.001Z,19.23
2019-04-29T14:13:54.786Z,22.27
2019-04-29T14:16:27.211Z,15.83
2019-04-29T14:18:59.611Z,15.83
2019-04-29T14:21:32.730Z,16.50
2019-04-29T14:24:05.370Z,17.37
2019-04-29T14:26:41.941Z,23.55
2019-04-29T14:29:11.550Z,16.77
2019-04-29T14:31:46.690Z,20.48
2019-04-29T14:34:21.302Z,15.63
2019-04-29T14:36:57.497Z,20.97
2019-04-29T14:39:37.264Z,22.77
2019-04-29T14:42:05.067Z,24.20
2019-04-29T14:44:39.085Z,21.80
2019-04-29T14:47:29.399Z,13.85
2019-04-29T14:50:03.591Z,24.47
2019-04-29T14:52:36.350Z,15.18
2019-04-29T14:55:09.410Z,16.10
2019-04-29T14:57:42.981Z,27.87
2019-04-29T15:00:23.407Z,22.73
2019-04-29T15:03:00.612Z,14.75
2019-04-29T15:05:32.766Z,17.17
2019-04-29T15:08:05.287Z,15.80
2019-04-29T15:10:38.584Z,15.68
2019-04-29T15:13:21.177Z,22.32
2019-04-29T15:16:09.680Z,15.85
2019-04-29T15:18:48.649Z,18.02
2019-04-29T15:21:32.984Z,16.50
2019-04-29T15:24:05.260Z,19.02
2019-04-29T15:26:37.620Z,18.17
2019-04-29T15:29:10.060Z,16.67
2019-04-29T15:31:47.162Z,22.00
2019-04-29T15:34:16.880Z,17.98
2019-04-29T15:36:49.279Z,19.52
2019-04-29T15:39:24.889Z,20.37
2019-04-29T15:41:56.363Z,16.87
2019-04-29T15:44:28.914Z,19.52
2019-04-29T15:47:01.522Z,17.90
2019-04-29T15:49:33.940Z,24.00
2019-04-29T15:52:06.400Z,24.45
2019-04-29T15:54:39.121Z,21.20
2019-04-29T15:57:15.481Z,23.60
2019-04-29T15:59:49.072Z,14.90
2019-04-29T16:02:20.060Z,15.32
2019-04-29T16:04:54.182Z,30.48
2019-04-29T16:07:37.220Z,18.87
2019-04-29T16:10:23.900Z,20.30
2019-04-29T16:13:00.780Z,18.80
2019-04-29T16:15:33.460Z,15.23
2019-04-29T16:18:10.570Z,15.10
2019-04-29T16:20:40.040Z,14.83
2019-04-29T16:23:12.620Z,14.93
2019-04-29T16:25:46.197Z,25.10
2019-04-29T16:28:24.337Z,21.70
2019-04-29T16:30:53.378Z,17.00
2019-04-29T16:33:26.921Z,16.85
2019-04-29T16:36:04.783Z,18.27
2019-04-29T16:38:33.945Z,13.68
2019-04-29T16:41:21.245Z,22.90
2019-04-29T16:43:55.465Z,16.25
2019-04-29T16:49:08.919Z,22.15
2019-04-29T16:51:41.573Z,13.08
2019-04-29T16:54:20.554Z,15.53
2019-04-29T16:56:50.002Z,20.02
2019-04-29T16:59:23.730Z,14.93
2019-04-29T17:01:56.600Z,20.55
2019-04-29T17:04:29.298Z,13.38
2019-04-29T17:07:12.356Z,13.05
2019-04-29T17:09:37.720Z,13.38
2019-04-29T17:12:11.110Z,14.40
2019-04-29T17:17:28.339Z,11.83
2019-04-29T17:19:54.070Z,15.55
2019-04-29T17:22:27.682Z,19.55
2019-04-29T17:25:01.705Z,20.40
2019-04-29T17:27:42.079Z,21.35
2019-04-29T17:30:29.303Z,10.78
2019-04-29T17:33:10.023Z,19.80
2019-04-29T17:35:15.895Z,19.05
2019-04-29T17:35:17.482Z,11.08
2019-04-29T17:35:47.614Z,20.70
2019-04-29T17:38:17.335Z,11.55
2019-04-29T17:40:51.087Z,14.80
2019-04-29T17:43:24.005Z,16.12
2019-04-29T17:46:07.285Z,16.80
2019-04-29T17:48:53.216Z,13.95
2019-04-29T17:51:26.643Z,18.67
2019-04-29T17:54:05.230Z,18.50
2019-04-29T17:56:48.896Z,12.95
2019-04-29T17:59:29.670Z,12.82
2019-04-29T18:02:18.415Z,17.35
2019-04-29T18:04:57.264Z,19.57
2019-04-29T18:07:51.571Z,21.82
2019-04-29T18:10:24.348Z,16.25
2019-04-29T18:12:54.979Z,12.58
2019-04-29T18:15:40.205Z,21.00
2019-04-29T18:18:07.211Z,13.05
2019-04-29T18:20:42.484Z,18.65
2019-04-29T18:23:30.045Z,19.07
2019-04-29T18:26:04.841Z,11.25
2019-04-29T18:28:37.547Z,18.05
2019-04-29T18:31:11.845Z,24.47
2019-04-29T18:33:45.151Z,25.88
2019-04-29T18:36:23.714Z,12.25
2019-04-29T18:38:52.141Z,16.55
2019-04-29T18:41:28.554Z,17.20
2019-04-29T18:44:03.014Z,22.85
2019-04-29T18:46:35.179Z,20.82
2019-04-29T18:49:07.930Z,14.33
2019-04-29T18:51:40.295Z,18.07
2019-04-29T18:54:12.896Z,14.87
2019-04-29T18:56:45.678Z,18.90
2019-04-29T18:59:21.265Z,17.40
2019-04-29T19:01:52.841Z,15.10
2019-04-29T19:04:25.663Z,15.45
2019-04-29T19:07:02.085Z,19.95
2019-04-29T19:09:35.842Z,15.37
2019-04-29T19:12:09.150Z,14.73
2019-04-29T19:14:42.052Z,16.67
2019-04-29T19:17:16.160Z,23.00
2019-04-29T19:19:50.420Z,17.37
2019-04-29T19:22:23.280Z,17.03
2019-04-29T19:24:55.995Z,14.27
2019-04-29T19:27:30.569Z,15.30
2019-04-29T19:30:05.331Z,17.40
2019-04-29T19:32:39.080Z,18.70
2019-04-29T19:35:12.320Z,16.33
2019-04-29T19:37:45.426Z,20.40
2019-04-29T19:40:19.170Z,20.00
2019-04-29T19:42:51.855Z,13.13
2019-04-29T19:45:24.665Z,14.83
2019-04-29T19:47:57.480Z,15.90
2019-04-29T19:50:31.384Z,18.60
2019-04-29T19:53:04.909Z,19.53
2019-04-29T19:55:42.248Z,15.25
2019-04-29T19:58:14.725Z,17.33
2019-04-29T20:00:48.808Z,17.80
2019-04-29T20:03:25.133Z,18.10
2019-04-29T20:06:08.451Z,12.23
2019-04-29T20:08:50.883Z,20.40
2019-04-29T20:11:14.161Z,24.33
2019-04-29T20:13:46.804Z,15.63
2019-04-29T20:16:42.795Z,15.33
2019-04-29T20:19:16.455Z,18.77
2019-04-29T20:21:43.263Z,15.70
2019-04-29T20:24:17.909Z,12.97
2019-04-29T20:26:51.261Z,12.97
2019-04-29T20:29:28.603Z,13.23
2019-04-29T20:31:58.958Z,17.33
2019-04-29T20:34:32.256Z,14.10
2019-04-29T20:37:06.065Z,13.90
2019-04-29T20:39:39.341Z,23.03
2019-04-29T20:42:12.240Z,12.87
2019-04-29T20:44:48.817Z,23.63
2019-04-29T20:47:23.285Z,14.03
2019-04-29T20:49:54.444Z,14.53
2019-04-29T20:52:36.205Z,20.60
2019-04-29T20:55:09.752Z,16.53
2019-04-29T20:57:42.755Z,14.27
2019-04-29T21:00:20.236Z,10.83
2019-04-29T21:02:50.712Z,13.47
2019-04-29T21:05:24.924Z,13.57
2019-04-29T21:08:03.541Z,12.77
2019-04-29T21:10:32.429Z,10.73
2019-04-29T21:13:15.164Z,21.80
2019-04-29T21:16:00.162Z,15.73
2019-04-29T21:18:32.770Z,11.27
2019-04-29T21:21:07.880Z,9.27
2019-04-29T21:23:40.050Z,17.03
2019-04-29T21:26:12.569Z,13.97
2019-04-29T21:28:47.025Z,18.97
2019-04-29T21:31:20.164Z,15.13
2019-04-29T21:33:57.450Z,11.90
2019-04-29T21:36:30.966Z,14.53
2019-04-29T21:39:22.851Z,12.70
2019-04-29T21:41:58.649Z,11.17
2019-04-29T21:44:29.684Z,13.73
2019-04-29T21:47:06.628Z,10.37
2019-04-29T21:49:45.322Z,11.03
2019-04-29T21:52:12.064Z,16.93
2019-04-29T21:54:49.127Z,12.17
2019-04-29T21:57:23.899Z,26.73
2019-04-29T21:59:53.179Z,11.17
2019-04-29T22:02:26.159Z,9.70
2019-04-29T22:04:59.054Z,18.93
2019-04-29T22:07:31.534Z,14.20
2019-04-29T22:10:05.256Z,11.13
2019-04-29T22:12:38.976Z,17.50
2019-04-29T22:15:15.802Z,13.57
2019-04-29T22:17:56.431Z,10.90
2019-04-29T22:20:23.116Z,15.10
2019-04-29T22:22:56.002Z,14.70
2019-04-29T22:25:28.880Z,12.10
2019-04-29T22:28:01.760Z,9.70
2019-04-29T22:30:35.425Z,14.00
2019-04-29T22:33:08.714Z,12.47
2019-04-29T22:35:41.169Z,12.23
2019-04-29T22:38:16.267Z,16.00
2019-04-29T22:40:48.350Z,11.97
2019-04-29T22:43:40.323Z,15.40
2019-04-29T22:46:12.156Z,20.13
2019-04-29T22:48:48.420Z,10.67
2019-04-29T22:51:19.425Z,11.00
2019-04-29T22:53:52.085Z,13.03
2019-04-29T22:56:27.612Z,13.93
2019-04-29T22:58:59.221Z,13.67
2019-04-29T23:01:32.061Z,17.30
2019-04-29T23:04:05.277Z,15.23
2019-04-29T23:06:39.895Z,10.57
2019-04-29T23:09:13.194Z,18.17
2019-04-29T23:11:47.539Z,14.90
2019-04-29T23:14:20.059Z,12.73
2019-04-29T23:16:52.785Z,14.17
2019-04-29T23:19:26.011Z,13.47
2019-04-29T23:22:22.159Z,14.20
2019-04-29T23:25:01.752Z,15.40
2019-04-29T23:27:36.054Z,18.57
2019-04-29T23:30:13.694Z,13.87
2019-04-29T23:32:47.513Z,12.60
2019-04-29T23:35:19.412Z,15.17
2019-04-29T23:37:51.991Z,19.00
2019-04-29T23:40:24.785Z,18.10
2019-04-29T23:42:57.526Z,12.30
2019-04-29T23:45:30.235Z,19.73
2019-04-29T23:48:02.860Z,10.57
2019-04-29T23:50:36.013Z,18.07
2019-04-29T23:53:08.695Z,14.33
2019-04-29T23:55:41.365Z,18.27
2019-04-29T23:58:32.728Z,11.17
